Time;durP1;ratioP1;P1;durP2;ratioP2;P2;SDS_P1;SDS_P2;PMS_P1;PMS_P2;Temp;Humidity;BMP_temperature;BMP_pressure;BME280_temperature;BME280_humidity;BME280_pressure;Samples;Min_cycle;Max_cycle;Signal;HPM_P1;HPM_P2
2023/12/30 00:00:04;;;;;;;;;;;;;;;6.94;65.59;99200.16;4416994;32;33983;-86
2023/12/30 00:02:49;;;;;;;;;;;;;;;6.87;65.15;99197.38;4414525;32;34108;-88
2023/12/30 00:05:16;;;;;;;;;;;;;;;6.80;65.47;99201.47;4404679;32;33053;-88
2023/12/30 00:07:44;;;;;;;;;;;;;;;6.77;65.15;99197.09;4405757;32;34178;-88
2023/12/30 00:10:11;;;;;;;;;;;;;;;6.77;65.00;99202.25;4405057;32;35158;-87
2023/12/30 00:12:39;;;;;;;;;;;;;;;6.79;64.75;99198.03;4416901;32;34897;-89
2023/12/30 00:15:06;;;;;;;;;;;;;;;6.67;65.05;99189.97;4406008;32;33402;-86
2023/12/30 00:17:34;;;;;;;;;;;;;;;6.57;65.51;99193.09;4405789;32;33636;-88
2023/12/30 00:20:02;;;;;;;;;;;;;;;6.59;65.57;99194.00;4404260;32;34824;-88
2023/12/30 00:22:29;;;;;;;;;;;;;;;6.44;66.56;99191.88;4405169;32;34337;-88
2023/12/30 00:24:57;;;;;;;;;;;;;;;6.64;65.91;99199.31;4405638;32;33193;-86
2023/12/30 00:27:24;;;;;;;;;;;;;;;6.51;66.38;99193.78;4405865;32;33839;-88
2023/12/30 00:29:51;;;;;;;;;;;;;;;6.42;66.87;99198.66;4405558;32;34088;-87
2023/12/30 00:32:19;;;;;;;;;;;;;;;6.65;66.20;99196.75;4398811;32;34242;-86
2023/12/30 00:34:46;;;;;;;;;;;;;;;6.78;65.58;99201.44;4417108;32;33269;-88
2023/12/30 00:37:18;;;;;;;;;;;;;;;6.77;65.22;99191.94;4405421;32;34171;-87
2023/12/30 00:39:46;;;;;;;;;;;;;;;6.73;65.26;99195.28;4416877;32;34927;-88
2023/12/30 00:42:14;;;;;;;;;;;;;;;6.77;64.70;99198.81;4404250;32;33671;-87
2023/12/30 00:44:42;;;;;;;;;;;;;;;6.78;64.73;99198.88;4405536;32;32822;-88
2023/12/30 00:47:11;;;;;;;;;;;;;;;6.63;64.60;99203.59;4417112;32;34031;-88
2023/12/30 00:49:38;;;;;;;;;;;;;;;6.64;64.74;99194.16;4416238;32;34798;-90
2023/12/30 00:52:05;;;;;;;;;;;;;;;6.67;64.47;99200.28;4402860;32;33918;-87
2023/12/30 00:54:33;;;;;;;;;;;;;;;6.66;64.01;99203.66;4405374;32;33335;-88
2023/12/30 00:57:10;;;;;;;;;;;;;;;6.54;64.58;99200.72;4415578;32;34668;-88
2023/12/30 00:59:38;;;;;;;;;;;;;;;6.67;64.41;99209.72;4404705;32;33576;-88
2023/12/30 01:02:05;;;;;;;;;;;;;;;6.37;64.77;99205.41;4405498;32;33803;-86
2023/12/30 01:04:40;;;;;;;;;;;;;;;6.31;65.08;99206.06;4404976;32;34235;-86
2023/12/30 01:07:08;;;;;;;;;;;;;;;6.50;64.37;99206.63;4416685;32;33842;-88
2023/12/30 01:09:35;;;;;;;;;;;;;;;6.37;64.44;99207.09;4418662;32;34013;-87
2023/12/30 01:12:03;;;;;;;;;;;;;;;6.31;64.68;99211.22;4405571;32;34588;-90
2023/12/30 01:14:31;;;;;;;;;;;;;;;6.50;64.10;99217.78;4400072;32;32731;-89
2023/12/30 01:16:58;;;;;;;;;;;;;;;6.39;64.19;99210.56;4401554;32;34153;-88
2023/12/30 01:19:25;;;;;;;;;;;;;;;6.37;64.47;99217.41;4398543;32;35131;-89
2023/12/30 01:21:53;;;;;;;;;;;;;;;6.47;64.35;99211.69;4396733;32;34021;-88
2023/12/30 01:24:22;;;;;;;;;;;;;;;6.39;64.23;99213.16;4397107;32;33960;-89
2023/12/30 01:26:50;;;;;;;;;;;;;;;6.36;64.55;99208.78;4404407;32;34851;-87
2023/12/30 01:29:17;;;;;;;;;;;;;;;6.42;64.60;99215.81;4401949;32;34183;-87
2023/12/30 01:31:45;;;;;;;;;;;;;;;6.41;64.25;99203.78;4399831;32;34220;-89
2023/12/30 01:34:13;;;;;;;;;;;;;;;6.22;65.07;99210.94;4406297;32;33399;-87
2023/12/30 01:36:46;;;;;;;;;;;;;;;6.37;64.67;99207.97;4403634;32;34096;-90
2023/12/30 01:39:19;;;;;;;;;;;;;;;6.30;64.92;99212.06;4396445;32;33620;-89
2023/12/30 01:41:46;;;;;;;;;;;;;;;6.43;64.43;99204.69;4398324;32;33923;-89
2023/12/30 01:44:13;;;;;;;;;;;;;;;6.30;64.96;99209.47;4403639;32;33515;-88
2023/12/30 01:46:42;;;;;;;;;;;;;;;6.43;64.83;99204.69;4394313;32;32864;-89
2023/12/30 01:49:10;;;;;;;;;;;;;;;6.49;64.54;99190.31;4415723;32;34324;-88
2023/12/30 01:51:37;;;;;;;;;;;;;;;6.46;64.31;99194.47;4411008;32;33864;-90
2023/12/30 01:54:05;;;;;;;;;;;;;;;6.39;64.66;99188.28;4395493;32;34070;-88
2023/12/30 01:56:32;;;;;;;;;;;;;;;6.42;64.34;99188.38;4415819;32;33822;-89
2023/12/30 01:58:59;;;;;;;;;;;;;;;6.27;64.87;99193.94;4402224;32;34378;-89
2023/12/30 02:01:27;;;;;;;;;;;;;;;6.37;64.44;99196.81;4396130;32;34183;-89
2023/12/30 02:03:55;;;;;;;;;;;;;;;5.96;65.63;99183.53;4415154;32;33092;-89
2023/12/30 02:06:23;;;;;;;;;;;;;;;6.13;65.22;99187.47;4413780;32;34907;-89
2023/12/30 02:08:50;;;;;;;;;;;;;;;5.77;65.86;99188.06;4397593;32;34521;-87
2023/12/30 02:11:18;;;;;;;;;;;;;;;5.71;66.76;99176.69;4415930;32;33631;-89
2023/12/30 02:13:45;;;;;;;;;;;;;;;5.90;66.30;99176.44;4415386;32;33576;-89
2023/12/30 02:16:13;;;;;;;;;;;;;;;5.95;65.82;99169.81;4397284;32;34486;-90
2023/12/30 02:18:40;;;;;;;;;;;;;;;6.06;65.80;99172.66;4417341;32;34258;-88
2023/12/30 02:21:08;;;;;;;;;;;;;;;6.20;65.44;99171.41;4402653;32;34344;-89
2023/12/30 02:23:35;;;;;;;;;;;;;;;6.19;65.26;99164.50;4405435;32;32979;-89
2023/12/30 02:26:05;;;;;;;;;;;;;;;6.05;65.66;99168.38;4403930;32;33858;-89
2023/12/30 02:28:33;;;;;;;;;;;;;;;6.10;65.47;99169.41;4395484;32;34330;-88
2023/12/30 02:31:00;;;;;;;;;;;;;;;5.79;66.28;99173.53;4405831;32;34216;-89
2023/12/30 02:33:27;;;;;;;;;;;;;;;5.78;66.17;99173.50;4405385;32;33644;-88
2023/12/30 02:35:56;;;;;;;;;;;;;;;5.64;66.24;99174.75;4395450;32;33749;-89
2023/12/30 02:38:24;;;;;;;;;;;;;;;5.79;66.40;99168.38;4404008;32;34134;-89
2023/12/30 02:40:51;;;;;;;;;;;;;;;5.62;66.92;99169.56;4393000;32;34854;-87
2023/12/30 02:43:18;;;;;;;;;;;;;;;5.67;66.95;99170.56;4405751;32;33334;-89
2023/12/30 02:45:46;;;;;;;;;;;;;;;5.90;66.16;99181.59;4405623;32;34062;-89
2023/12/30 02:48:13;;;;;;;;;;;;;;;5.58;67.32;99183.16;4394207;32;33848;-88
2023/12/30 02:50:41;;;;;;;;;;;;;;;5.65;67.72;99164.53;4415133;32;35017;-87
2023/12/30 02:53:11;;;;;;;;;;;;;;;5.70;67.41;99178.41;4405033;32;33394;-88
2023/12/30 02:55:38;;;;;;;;;;;;;;;5.29;70.74;99184.72;4405281;32;34156;-88
2023/12/30 02:58:06;;;;;;;;;;;;;;;5.47;72.75;99176.78;4405656;32;34285;-88
2023/12/30 03:00:33;;;;;;;;;;;;;;;5.82;70.71;99178.78;4403961;32;33999;-90
2023/12/30 03:03:00;;;;;;;;;;;;;;;5.18;72.20;99176.66;4398778;32;34064;-88
2023/12/30 03:05:28;;;;;;;;;;;;;;;5.68;70.99;99168.88;4417442;32;34560;-89
2023/12/30 03:07:58;;;;;;;;;;;;;;;5.93;69.73;99170.56;4417146;32;35042;-87
2023/12/30 03:10:26;;;;;;;;;;;;;;;5.83;69.35;99172.84;4390213;32;33868;-88
2023/12/30 03:12:53;;;;;;;;;;;;;;;5.86;69.48;99170.31;4394158;32;33112;-87
2023/12/30 03:15:21;;;;;;;;;;;;;;;6.03;68.91;99165.75;4399578;32;34790;-89
2023/12/30 03:17:49;;;;;;;;;;;;;;;5.97;68.74;99170.69;4400195;32;33980;-88
2023/12/30 03:20:16;;;;;;;;;;;;;;;6.09;68.33;99165.06;4401211;32;34836;-87
2023/12/30 03:22:44;;;;;;;;;;;;;;;6.02;68.00;99166.59;4402927;32;33330;-88
2023/12/30 03:25:11;;;;;;;;;;;;;;;6.12;67.91;99165.16;4405371;32;34374;-88
2023/12/30 03:27:39;;;;;;;;;;;;;;;6.05;67.64;99170.94;4405411;32;35113;-87
2023/12/30 03:30:06;;;;;;;;;;;;;;;5.93;68.59;99160.28;4406018;32;33536;-88
2023/12/30 03:32:33;;;;;;;;;;;;;;;6.11;68.35;99166.00;4405107;32;34021;-88
2023/12/30 03:35:01;;;;;;;;;;;;;;;6.09;68.11;99165.06;4406097;32;34157;-89
2023/12/30 03:37:28;;;;;;;;;;;;;;;6.20;67.97;99173.09;4405484;32;33750;-88
2023/12/30 03:39:56;;;;;;;;;;;;;;;6.02;68.84;99158.88;4405782;32;34854;-88
2023/12/30 03:42:27;;;;;;;;;;;;;;;6.05;68.44;99166.66;4405786;32;32960;-89
2023/12/30 03:44:54;;;;;;;;;;;;;;;5.57;69.44;99178.84;4405543;32;34426;-89
2023/12/30 03:47:21;;;;;;;;;;;;;;;5.64;71.18;99162.75;4405398;32;34116;-88
2023/12/30 03:49:48;;;;;;;;;;;;;;;5.79;70.60;99158.09;4406101;32;34977;-88
2023/12/30 03:52:16;;;;;;;;;;;;;;;6.00;69.74;99173.38;4417105;32;33950;-89
2023/12/30 03:54:43;;;;;;;;;;;;;;;5.21;72.09;99179.34;4398244;32;35105;-89
2023/12/30 03:57:13;;;;;;;;;;;;;;;5.29;73.19;99175.31;4400733;32;34051;-88
2023/12/30 03:59:40;;;;;;;;;;;;;;;5.36;73.06;99190.12;4405312;32;34218;-88
2023/12/30 04:02:08;;;;;;;;;;;;;;;5.42;72.87;99180.88;4405682;32;33059;-88
2023/12/30 04:04:36;;;;;;;;;;;;;;;5.70;72.50;99175.81;4405724;32;34742;-89
2023/12/30 04:07:03;;;;;;;;;;;;;;;5.95;71.33;99174.94;4405817;32;34473;-88
2023/12/30 04:09:30;;;;;;;;;;;;;;;5.99;70.55;99173.34;4416810;32;34456;-88
2023/12/30 04:11:58;;;;;;;;;;;;;;;5.96;70.29;99173.25;4405332;32;33327;-87
2023/12/30 04:14:25;;;;;;;;;;;;;;;5.92;70.01;99166.22;4405291;32;34591;-88
2023/12/30 04:16:52;;;;;;;;;;;;;;;5.54;69.82;99184.75;4405637;32;34437;-88
2023/12/30 04:19:20;;;;;;;;;;;;;;;5.61;70.72;99178.97;4405507;32;33566;-89
2023/12/30 04:21:47;;;;;;;;;;;;;;;5.70;70.56;99178.41;4405334;32;34018;-88
2023/12/30 04:24:14;;;;;;;;;;;;;;;5.84;69.81;99182.28;4405614;32;33465;-89
2023/12/30 04:26:43;;;;;;;;;;;;;;;5.72;69.16;99181.91;4405663;32;33886;-88
2023/12/30 04:29:10;;;;;;;;;;;;;;;5.80;69.25;99175.28;4405216;32;34088;-88
2023/12/30 04:31:38;;;;;;;;;;;;;;;6.00;68.91;99185.37;4416783;32;33274;-88
2023/12/30 04:34:05;;;;;;;;;;;;;;;6.00;68.36;99185.37;4405213;32;34170;-88
2023/12/30 04:36:33;;;;;;;;;;;;;;;5.88;68.36;99172.97;4405718;32;33628;-88
2023/12/30 04:39:00;;;;;;;;;;;;;;;6.05;67.76;99176.94;4405303;32;34356;-87
2023/12/30 04:41:27;;;;;;;;;;;;;;;5.74;67.83;99175.09;4405449;32;33992;-88
2023/12/30 04:43:55;;;;;;;;;;;;;;;5.74;67.57;99180.25;4416463;32;33681;-89
2023/12/30 04:46:22;;;;;;;;;;;;;;;5.24;68.23;99192.31;4405536;32;34182;-88
2023/12/30 04:48:53;;;;;;;;;;;;;;;5.32;68.32;99190.84;4404750;32;33496;-88
2023/12/30 04:51:21;;;;;;;;;;;;;;;5.61;67.42;99202.13;4400423;32;33104;-89
2023/12/30 04:53:48;;;;;;;;;;;;;;;5.61;67.32;99186.69;4405282;32;34080;-89
2023/12/30 04:56:16;;;;;;;;;;;;;;;5.68;67.03;99205.75;4404933;32;34060;-87
2023/12/30 04:58:44;;;;;;;;;;;;;;;5.66;67.04;99202.28;4408323;32;34705;-88
2023/12/30 05:01:12;;;;;;;;;;;;;;;5.74;66.75;99199.94;4416610;32;32872;-88
2023/12/30 05:03:42;;;;;;;;;;;;;;;5.60;67.29;99196.91;4415958;32;34289;-88
2023/12/30 05:06:21;;;;;;;;;;;;;;;5.80;66.24;99206.16;4405326;32;32860;-88
2023/12/30 05:08:49;;;;;;;;;;;;;;;4.88;69.74;99209.84;4416108;32;34818;-88
2023/12/30 05:11:16;;;;;;;;;;;;;;;5.36;69.34;99215.84;4404560;32;33427;-87
2023/12/30 05:13:43;;;;;;;;;;;;;;;5.51;69.37;99201.75;4404520;32;34068;-89
2023/12/30 05:16:11;;;;;;;;;;;;;;;5.44;69.58;99195.53;4404886;32;35186;-89
2023/12/30 05:18:38;;;;;;;;;;;;;;;5.08;69.81;99210.59;4404247;32;33655;-89
2023/12/30 05:21:11;;;;;;;;;;;;;;;5.56;68.85;99220.78;4416024;32;32563;-89
2023/12/30 05:23:38;;;;;;;;;;;;;;;5.57;69.04;99207.13;4416340;32;34323;-89
2023/12/30 05:26:05;;;;;;;;;;;;;;;5.75;68.71;99210.28;4405238;32;33925;-89
2023/12/30 05:28:33;;;;;;;;;;;;;;;5.97;67.76;99214.44;4404862;32;33877;-89
2023/12/30 05:31:01;;;;;;;;;;;;;;;5.91;67.81;99213.34;4415633;32;33484;-89
2023/12/30 05:33:28;;;;;;;;;;;;;;;5.89;67.51;99227.88;4405397;32;33771;-88
2023/12/30 05:35:56;;;;;;;;;;;;;;;5.72;68.37;99206.72;4404959;32;34819;-90
2023/12/30 05:38:23;;;;;;;;;;;;;;;5.93;67.79;99219.44;4415259;32;34899;-90
2023/12/30 05:40:51;;;;;;;;;;;;;;;5.89;68.06;99215.87;4404504;32;32814;-89
2023/12/30 05:43:18;;;;;;;;;;;;;;;5.79;68.44;99219.84;4403987;32;33835;-88
2023/12/30 05:45:46;;;;;;;;;;;;;;;5.94;68.19;99214.34;4403976;32;34171;-89
2023/12/30 05:48:13;;;;;;;;;;;;;;;5.60;69.19;99227.78;4404373;32;34214;-88
2023/12/30 05:50:41;;;;;;;;;;;;;;;5.43;70.48;99228.91;4404763;32;33983;-89
2023/12/30 05:53:10;;;;;;;;;;;;;;;5.70;70.07;99223.81;4404612;32;34018;-89
2023/12/30 05:55:40;;;;;;;;;;;;;;;5.82;69.30;99231.94;4405085;32;35177;-89
2023/12/30 05:58:08;;;;;;;;;;;;;;;5.71;69.84;99239.28;4404423;32;34772;-88
2023/12/30 06:00:35;;;;;;;;;;;;;;;5.84;69.23;99238.03;4404761;32;33212;-89
2023/12/30 06:03:03;;;;;;;;;;;;;;;6.00;68.75;99242.84;4406662;32;33894;-89
2023/12/30 06:05:31;;;;;;;;;;;;;;;6.07;68.36;99237.09;4406742;32;34290;-88
2023/12/30 06:07:58;;;;;;;;;;;;;;;5.91;68.60;99239.06;4406661;32;34817;-89
2023/12/30 06:10:26;;;;;;;;;;;;;;;5.89;68.74;99253.59;4406600;32;33289;-88
2023/12/30 06:12:53;;;;;;;;;;;;;;;5.87;68.75;99238.09;4406613;32;34893;-89
2023/12/30 06:15:20;;;;;;;;;;;;;;;6.12;67.74;99247.53;4417528;32;33964;-89
2023/12/30 06:17:48;;;;;;;;;;;;;;;5.65;68.74;99251.09;4406878;32;33988;-89
2023/12/30 06:20:15;;;;;;;;;;;;;;;5.55;69.09;99239.63;4406480;32;33645;-89
2023/12/30 06:22:42;;;;;;;;;;;;;;;5.92;67.91;99240.84;4406387;32;34162;-89
2023/12/30 06:25:10;;;;;;;;;;;;;;;5.93;67.59;99243.47;4406664;32;34719;-88
2023/12/30 06:27:37;;;;;;;;;;;;;;;6.02;67.58;99248.03;4406873;32;33470;-89
2023/12/30 06:30:05;;;;;;;;;;;;;;;6.08;67.43;99253.41;4406630;32;34130;-88
2023/12/30 06:32:32;;;;;;;;;;;;;;;5.84;68.14;99258.59;4406348;32;34359;-89
2023/12/30 06:35:00;;;;;;;;;;;;;;;6.03;67.58;99260.97;4406433;32;33811;-89
2023/12/30 06:37:27;;;;;;;;;;;;;;;6.00;67.65;99258.31;4406751;32;34091;-89
2023/12/30 06:39:55;;;;;;;;;;;;;;;6.17;67.04;99253.66;4406336;32;33066;-89
2023/12/30 06:42:22;;;;;;;;;;;;;;;6.11;66.92;99265.50;4406286;32;33694;-90
2023/12/30 06:44:49;;;;;;;;;;;;;;;5.94;67.48;99265.81;4406335;32;34056;-89
2023/12/30 06:47:16;;;;;;;;;;;;;;;5.97;67.43;99272.75;4406465;32;34891;-89
2023/12/30 06:49:44;;;;;;;;;;;;;;;5.91;67.48;99264.78;4406718;32;32515;-89
2023/12/30 06:52:11;;;;;;;;;;;;;;;6.11;66.93;99263.78;4405484;32;33029;-88
2023/12/30 06:54:39;;;;;;;;;;;;;;;5.88;67.40;99277.59;4405058;32;33418;-89
2023/12/30 06:57:06;;;;;;;;;;;;;;;5.93;67.74;99278.63;4417966;32;33765;-89
2023/12/30 06:59:35;;;;;;;;;;;;;;;5.80;68.23;99273.06;4406037;32;32707;-89
2023/12/30 07:02:02;;;;;;;;;;;;;;;5.79;68.28;99288.44;4405930;32;34811;-91
2023/12/30 07:04:30;;;;;;;;;;;;;;;5.57;69.55;99287.72;4405812;32;33979;-89
2023/12/30 07:06:57;;;;;;;;;;;;;;;5.77;69.05;99285.81;4406342;32;34373;-89
2023/12/30 07:09:25;;;;;;;;;;;;;;;5.91;68.54;99295.66;4404978;32;32939;-90
2023/12/30 07:11:52;;;;;;;;;;;;;;;5.39;70.18;99299.94;4405668;32;34832;-91
2023/12/30 07:14:19;;;;;;;;;;;;;;;5.69;69.21;99307.84;4406156;32;33928;-90
2023/12/30 07:16:50;;;;;;;;;;;;;;;5.61;69.84;99311.84;4406407;32;33338;-91
2023/12/30 07:19:17;;;;;;;;;;;;;;;5.67;69.83;99317.19;4404953;32;32603;-91
2023/12/30 07:21:44;;;;;;;;;;;;;;;5.72;69.26;99314.75;4404517;32;34018;-90
2023/12/30 07:24:12;;;;;;;;;;;;;;;5.47;70.44;99321.63;4404733;32;33629;-90
2023/12/30 07:26:39;;;;;;;;;;;;;;;5.40;70.80;99321.38;4405068;32;33150;-90
2023/12/30 07:29:06;;;;;;;;;;;;;;;5.52;70.62;99316.66;4417574;32;34151;-90
2023/12/30 07:31:35;;;;;;;;;;;;;;;5.40;71.05;99316.22;4405719;32;34821;-89
2023/12/30 07:34:04;;;;;;;;;;;;;;;5.66;70.66;99323.16;4406160;32;34317;-90
2023/12/30 07:36:31;;;;;;;;;;;;;;;5.53;71.66;99324.44;4405735;32;33634;-89
2023/12/30 07:38:59;;;;;;;;;;;;;;;5.83;70.40;99334.91;4405768;32;33161;-89
2023/12/30 07:41:26;;;;;;;;;;;;;;;5.36;73.03;99328.97;4417351;32;34005;-89
2023/12/30 07:43:53;;;;;;;;;;;;;;;5.76;71.59;99327.81;4417413;32;34163;-90
2023/12/30 07:46:21;;;;;;;;;;;;;;;5.29;73.01;99327.00;4405624;32;34236;-89
2023/12/30 07:48:48;;;;;;;;;;;;;;;5.51;74.60;99330.34;4405787;32;32502;-90
2023/12/30 07:51:16;;;;;;;;;;;;;;;5.99;72.40;99336.34;4405386;32;34916;-90
2023/12/30 07:53:44;;;;;;;;;;;;;;;5.97;72.52;99335.41;4406093;32;34708;-90
2023/12/30 07:56:11;;;;;;;;;;;;;;;5.93;72.96;99340.38;4406135;32;34411;-90
2023/12/30 07:58:39;;;;;;;;;;;;;;;5.86;73.97;99345.28;4405647;32;34157;-88
2023/12/30 08:01:07;;;;;;;;;;;;;;;6.06;73.88;99345.13;4405977;32;34546;-90
2023/12/30 08:03:35;;;;;;;;;;;;;;;6.31;73.17;99349.38;4417681;32;33805;-89
2023/12/30 08:06:02;;;;;;;;;;;;;;;6.25;73.43;99341.44;4406261;32;33893;-89
2023/12/30 08:08:29;;;;;;;;;;;;;;;6.50;72.76;99344.00;4406445;32;33200;-89
2023/12/30 08:10:57;;;;;;;;;;;;;;;6.42;73.32;99345.44;4406134;32;32207;-89
2023/12/30 08:13:24;;;;;;;;;;;;;;;6.65;72.68;99348.75;4406030;32;34933;-89
2023/12/30 08:15:51;;;;;;;;;;;;;;;6.77;72.33;99351.69;4404984;32;32965;-89
2023/12/30 08:18:19;;;;;;;;;;;;;;;6.73;72.47;99352.44;4406098;32;33676;-88
2023/12/30 08:20:49;;;;;;;;;;;;;;;6.92;72.21;99347.84;4405530;32;34593;-88
2023/12/30 08:23:16;;;;;;;;;;;;;;;6.99;72.03;99352.38;4404514;32;34370;-90
2023/12/30 08:25:44;;;;;;;;;;;;;;;6.95;72.42;99361.72;4405817;32;34042;-89
2023/12/30 08:28:11;;;;;;;;;;;;;;;7.23;71.75;99367.66;4405608;32;33105;-89
2023/12/30 08:30:38;;;;;;;;;;;;;;;6.77;73.81;99379.19;4405343;32;33963;-89
2023/12/30 08:33:09;;;;;;;;;;;;;;;7.11;73.06;99372.47;4405581;32;35110;-89
2023/12/30 08:35:36;;;;;;;;;;;;;;;7.27;72.58;99370.41;4405802;32;34722;-88
2023/12/30 08:38:04;;;;;;;;;;;;;;;7.31;72.63;99367.09;4404467;32;31709;-89
2023/12/30 08:40:31;;;;;;;;;;;;;;;7.35;72.63;99374.88;4405127;32;34170;-89
2023/12/30 08:43:02;;;;;;;;;;;;;;;7.36;72.42;99374.06;4405721;32;34842;-89
2023/12/30 08:45:30;;;;;;;;;;;;;;;7.57;71.99;99369.50;4416837;32;34068;-88
2023/12/30 08:47:58;;;;;;;;;;;;;;;7.66;71.41;99374.94;4405575;32;34205;-89
2023/12/30 08:50:25;;;;;;;;;;;;;;;7.72;71.44;99377.66;4405460;32;34877;-89
2023/12/30 08:52:52;;;;;;;;;;;;;;;7.86;70.97;99378.06;4405158;32;34388;-89
2023/12/30 08:55:20;;;;;;;;;;;;;;;7.93;70.59;99374.81;4405351;32;33893;-89
2023/12/30 08:57:47;;;;;;;;;;;;;;;7.88;71.19;99375.50;4405198;32;34170;-90
2023/12/30 09:00:15;;;;;;;;;;;;;;;7.87;71.52;99378.94;4405411;32;33657;-89
2023/12/30 09:02:46;;;;;;;;;;;;;;;7.94;71.44;99376.53;4404934;32;34163;-89
2023/12/30 09:05:18;;;;;;;;;;;;;;;8.10;71.20;99382.97;4405186;32;34881;-88
2023/12/30 09:07:48;;;;;;;;;;;;;;;8.11;71.26;99387.34;4403636;32;32922;-88
2023/12/30 09:10:16;;;;;;;;;;;;;;;8.17;71.37;99384.03;4396616;32;34602;-88
2023/12/30 09:12:44;;;;;;;;;;;;;;;7.66;74.00;99389.56;4397534;32;33878;-89
2023/12/30 09:15:12;;;;;;;;;;;;;;;8.02;71.95;99397.41;4402946;32;34088;-88
2023/12/30 09:17:39;;;;;;;;;;;;;;;7.90;72.16;99389.34;4403872;32;33902;-88
2023/12/30 09:20:07;;;;;;;;;;;;;;;7.98;71.76;99390.41;4416282;32;34038;-88
2023/12/30 09:22:35;;;;;;;;;;;;;;;8.14;71.35;99389.97;4404994;32;34512;-90
2023/12/30 09:25:03;;;;;;;;;;;;;;;8.07;71.05;99398.41;4405080;32;33880;-88
2023/12/30 09:27:30;;;;;;;;;;;;;;;8.23;70.19;99403.16;4405220;32;33271;-88
2023/12/30 09:29:58;;;;;;;;;;;;;;;8.20;70.37;99392.72;4404475;32;34029;-89
2023/12/30 09:32:25;;;;;;;;;;;;;;;8.21;70.12;99389.28;4405102;32;34181;-89
2023/12/30 09:34:53;;;;;;;;;;;;;;;8.35;70.02;99394.81;4404611;32;34905;-87
2023/12/30 09:37:21;;;;;;;;;;;;;;;8.20;70.51;99382.41;4406651;32;33451;-86
2023/12/30 09:39:48;;;;;;;;;;;;;;;8.28;70.35;99388.63;4401161;32;34200;-88
2023/12/30 09:42:16;;;;;;;;;;;;;;;8.11;70.12;99394.22;4403702;32;35201;-88
2023/12/30 09:44:43;;;;;;;;;;;;;;;8.29;69.73;99390.38;4408676;32;33727;-87
2023/12/30 09:47:11;;;;;;;;;;;;;;;8.02;69.31;99384.50;4418359;32;32992;-88
2023/12/30 09:49:38;;;;;;;;;;;;;;;7.72;70.55;99400.03;4417764;32;33413;-87
2023/12/30 09:52:06;;;;;;;;;;;;;;;7.73;71.12;99378.56;4406927;32;33760;-87
2023/12/30 09:54:34;;;;;;;;;;;;;;;7.78;70.71;99393.34;4419348;32;34168;-88
2023/12/30 09:57:15;;;;;;;;;;;;;;;8.08;70.31;99399.28;4406791;32;32620;-88
2023/12/30 09:59:44;;;;;;;;;;;;;;;8.06;70.18;99391.47;4418056;32;33587;-87
2023/12/30 10:02:11;;;;;;;;;;;;;;;8.23;69.60;99392.81;4418084;32;34781;-87
2023/12/30 10:04:40;;;;;;;;;;;;;;;7.94;70.19;99383.44;4403154;32;34888;-87
2023/12/30 10:07:08;;;;;;;;;;;;;;;8.27;69.14;99386.88;4418265;32;33101;-87
2023/12/30 10:09:35;;;;;;;;;;;;;;;8.08;70.32;99388.97;4405782;32;33080;-87
2023/12/30 10:12:03;;;;;;;;;;;;;;;8.11;69.81;99379.59;4406831;32;34591;-88
2023/12/30 10:14:30;;;;;;;;;;;;;;;8.51;68.88;99386.66;4404347;32;33656;-89
2023/12/30 10:16:57;;;;;;;;;;;;;;;8.77;68.19;99383.81;4408107;32;33398;-89
2023/12/30 10:19:25;;;;;;;;;;;;;;;8.75;68.02;99383.78;4402544;32;34196;-89
2023/12/30 10:21:52;;;;;;;;;;;;;;;8.92;67.53;99372.97;4412996;32;34420;-88
2023/12/30 10:24:20;;;;;;;;;;;;;;;8.40;68.46;99379.47;4417783;32;33825;-90
2023/12/30 10:26:47;;;;;;;;;;;;;;;9.02;66.92;99374.91;4404221;32;33244;-87
2023/12/30 10:29:15;;;;;;;;;;;;;;;8.90;66.92;99384.97;4406348;32;33478;-90
2023/12/30 10:31:42;;;;;;;;;;;;;;;8.89;66.99;99383.22;4406712;32;34146;-91
2023/12/30 10:34:12;;;;;;;;;;;;;;;8.98;67.40;99375.69;4402225;32;34617;-88
2023/12/30 10:36:39;;;;;;;;;;;;;;;9.15;66.87;99371.75;4401382;32;32615;-86
2023/12/30 10:39:06;;;;;;;;;;;;;;;8.87;68.09;99366.81;4415415;32;33337;-89
2023/12/30 10:41:34;;;;;;;;;;;;;;;9.04;67.72;99362.88;4412519;32;35339;-88
2023/12/30 10:44:01;;;;;;;;;;;;;;;9.28;66.09;99352.19;4406172;32;34979;-87
2023/12/30 10:46:28;;;;;;;;;;;;;;;9.35;66.25;99354.03;4396159;32;32987;-89
2023/12/30 10:48:56;;;;;;;;;;;;;;;9.44;66.27;99349.06;4402133;32;34364;-91
2023/12/30 10:51:25;;;;;;;;;;;;;;;9.58;66.67;99351.91;4402895;32;34199;-90
2023/12/30 10:54:12;;;;;;;;;;;;;;;9.66;66.17;99346.88;4409058;32;34919;-88
2023/12/30 10:56:43;;;;;;;;;;;;;;;9.69;66.87;99342.66;4409666;32;32428;-91
2023/12/30 10:59:12;;;;;;;;;;;;;;;9.71;67.45;99340.97;4391818;32;34945;-87
2023/12/30 11:01:40;;;;;;;;;;;;;;;9.61;68.21;99345.94;4393468;32;33937;-87
2023/12/30 11:04:11;;;;;;;;;;;;;;;9.84;67.10;99341.19;4405333;32;34760;-90
2023/12/30 11:06:41;;;;;;;;;;;;;;;9.89;63.86;99332.69;4402914;32;33670;-91
2023/12/30 11:09:09;;;;;;;;;;;;;;;9.94;62.73;99325.00;4384327;32;33706;-87
2023/12/30 11:11:40;;;;;;;;;;;;;;;10.30;61.24;99324.75;4408963;32;34328;-89
2023/12/30 11:14:12;;;;;;;;;;;;;;;10.50;60.14;99317.31;4404289;32;33972;-87
2023/12/30 11:16:40;;;;;;;;;;;;;;;10.87;59.09;99323.94;4379810;32;33565;-90
2023/12/30 11:19:07;;;;;;;;;;;;;;;10.99;59.13;99328.41;4404475;32;33065;-91
2023/12/30 11:21:46;;;;;;;;;;;;;;;10.71;59.16;99328.00;4390601;32;34875;-88
2023/12/30 11:24:15;;;;;;;;;;;;;;;10.91;58.90;99323.13;4391296;32;34772;-89
2023/12/30 11:26:42;;;;;;;;;;;;;;;11.01;58.86;99315.44;4402569;32;32541;-87
2023/12/30 11:29:19;;;;;;;;;;;;;;;11.12;58.33;99326.84;4394530;32;34018;-89
2023/12/30 11:31:47;;;;;;;;;;;;;;;10.95;59.19;99322.31;4393617;32;35050;-89
2023/12/30 11:34:15;;;;;;;;;;;;;;;11.34;57.41;99317.59;4402904;32;34730;-91
2023/12/30 11:36:45;;;;;;;;;;;;;;;11.41;57.48;99314.22;4395562;32;32683;-86
2023/12/30 11:39:14;;;;;;;;;;;;;;;11.26;57.89;99306.25;4391750;32;33639;-87
2023/12/30 11:41:41;;;;;;;;;;;;;;;11.04;58.30;99305.97;4408748;32;35106;-87
2023/12/30 11:44:08;;;;;;;;;;;;;;;11.40;57.75;99309.88;4404463;32;34033;-87
2023/12/30 11:46:36;;;;;;;;;;;;;;;11.51;59.03;99310.00;4390866;32;33305;-88
2023/12/30 11:49:03;;;;;;;;;;;;;;;11.27;58.57;99314.06;4400942;32;34230;-89
2023/12/30 11:51:31;;;;;;;;;;;;;;;11.03;59.85;99309.44;4397470;32;34723;-86
2023/12/30 11:54:00;;;;;;;;;;;;;;;11.26;59.41;99307.13;4414503;32;33770;-88
2023/12/30 11:56:28;;;;;;;;;;;;;;;11.07;59.89;99303.44;4417107;32;32952;-87
2023/12/30 11:58:55;;;;;;;;;;;;;;;11.49;57.80;99311.72;4402948;32;33195;-87
2023/12/30 12:01:22;;;;;;;;;;;;;;;11.07;58.63;99311.22;4391236;32;34033;-86
2023/12/30 12:03:51;;;;;;;;;;;;;;;11.17;59.31;99302.72;4411699;32;33946;-87
2023/12/30 12:06:19;;;;;;;;;;;;;;;11.36;58.44;99300.31;4401363;32;34346;-86
2023/12/30 12:08:47;;;;;;;;;;;;;;;10.99;59.80;99297.28;4416621;32;33854;-88
2023/12/30 12:11:14;;;;;;;;;;;;;;;11.43;58.96;99300.41;4404044;32;33578;-88
2023/12/30 12:13:42;;;;;;;;;;;;;;;11.48;59.25;99308.25;4404193;32;34497;-86
2023/12/30 12:16:09;;;;;;;;;;;;;;;11.31;59.76;99297.66;4396807;32;33748;-87
2023/12/30 12:18:37;;;;;;;;;;;;;;;11.37;59.77;99296.88;4405089;32;33636;-88
2023/12/30 12:21:11;;;;;;;;;;;;;;;11.41;59.53;99294.34;4404506;32;33937;-88
2023/12/30 12:23:39;;;;;;;;;;;;;;;11.51;59.24;99297.00;4412955;32;33582;-86
2023/12/30 12:26:07;;;;;;;;;;;;;;;11.59;58.89;99282.38;4403474;32;33493;-88
2023/12/30 12:28:34;;;;;;;;;;;;;;;11.46;59.49;99294.38;4402142;32;34882;-86
2023/12/30 12:31:02;;;;;;;;;;;;;;;11.44;60.60;99290.91;4392007;32;34579;-87
2023/12/30 12:33:29;;;;;;;;;;;;;;;11.37;60.59;99299.47;4398421;32;34918;-85
2023/12/30 12:35:57;;;;;;;;;;;;;;;11.28;60.90;99291.56;4404916;32;33296;-87
2023/12/30 12:38:24;;;;;;;;;;;;;;;11.27;60.93;99292.41;4405152;32;33740;-87
2023/12/30 12:40:51;;;;;;;;;;;;;;;11.39;60.04;99287.38;4403735;32;33935;-87
2023/12/30 12:43:19;;;;;;;;;;;;;;;11.14;61.06;99287.09;4402530;32;32671;-89
2023/12/30 12:45:46;;;;;;;;;;;;;;;11.32;60.69;99290.75;4403628;32;31778;-88
2023/12/30 12:48:15;;;;;;;;;;;;;;;11.10;61.73;99290.50;4411792;32;34160;-87
2023/12/30 12:50:42;;;;;;;;;;;;;;;11.10;61.86;99292.19;4402789;32;34879;-89
2023/12/30 12:53:09;;;;;;;;;;;;;;;11.14;61.65;99287.09;4398102;32;35355;-87
2023/12/30 12:55:37;;;;;;;;;;;;;;;11.04;61.55;99284.34;4405354;32;33269;-86
2023/12/30 12:58:04;;;;;;;;;;;;;;;10.98;61.95;99286.88;4404145;32;36703;-87